Terminal Aerodrome Forecast
Issued by NWS

Home | Current Version | Previous Version | Text Only | Print | Product List | Glossary On
Versions: 1 2 3 4 5 6 7 8 9 10 11 12 13 14 15 16
000
FTUS41 KBTV 272324
TAFSLK
TAF
KSLK 272324Z 2800/2824 03007KT 6SM -SHSN BR SCT015 OVC040
      TEMPO 2800/2804 3SM -SN BR BKN015
     FM280400 02007KT P6SM -SHSN SCT015 OVC040
      TEMPO 2804/2808 3SM -SN BR BKN015
     FM280900 VRB03KT P6SM SCT015 OVC040
     FM281200 31006KT P6SM SCT030
     FM281500 28006KT P6SM SKC=

USA.gov is the U.S. government's official web portal to all federal, state and local government web resources and services.